Latest Weather Observations for Falls Creek

IDV60801

Issued at 4:32 pm EDT Friday 12 February 2016 (issued every 30 minutes, with the page automatically refreshed every 10 minutes)

About weather observations | Map of weather stations | Latest weather observations for VIC | Other Formats
Station Details ID: 083084 Name: FALLS CREEK Lat: -36.87 Lon: 147.28 Height: 1765.0 m
Data from the previous 72 hours. | See also: Recent months at Falls Creek
Date/Time
EDT
Temp
°C
App
Temp
°C
Dew
Point
Rel
Hum
%
Delta-T
°C
Wind Press
QNH
hPa
Press
MSL
hPa
Rain
since 9 am
mm
Dir
 
Spd
km/h
Gust
km/h
Spd
kts
Gust
kts
12/04:30pm 16.9 13.7 6.7 51 5.5 NNE 13 20 7 11 1021.4 1013.3 0.0
12/04:00pm 18.9 14.8 8.0 49 6.1 N 19 30 10 16 1021.4 1013.3 0.0
12/03:30pm 18.8 15.4 6.0 43 6.9 NE 13 28 7 15 1021.7 1013.6 0.0
12/03:00pm 18.2 15.7 8.2 52 5.6 ENE 11 30 6 16 1022.0 1013.9 0.0
12/02:30pm 16.6 13.6 7.8 56 4.9 ENE 13 20 7 11 1022.4 1014.3 0.0
12/02:00pm 17.4 14.7 9.1 58 4.7 NNE 13 20 7 11 1022.5 1014.4 0.0
12/01:30pm 16.5 13.6 8.0 57 4.7 E 13 22 7 12 1022.5 1014.4 0.0
12/01:00pm 18.2 15.6 9.3 56 5.1 NNE 13 24 7 13 1022.6 1014.6 0.0
12/12:30pm 17.6 13.9 7.9 53 5.4 NNE 17 24 9 13 1022.7 1014.7 0.0
12/12:00pm 17.4 13.5 7.2 51 5.6 N 17 30 9 16 1022.8 1014.8 0.0
12/11:30am 16.8 13.1 8.0 56 4.9 N 17 26 9 14 1022.8 1014.8 0.0
12/11:00am 17.2 14.7 8.1 55 5.1 NE 11 20 6 11 1022.8 1014.8 0.0
12/10:30am 16.2 12.7 5.5 49 5.6 NNE 13 24 7 13 1022.7 1014.7 0.0
12/10:00am 15.0 12.2 8.5 65 3.6 N 13 19 7 10 1022.8 1014.8 0.0
12/09:30am 14.8 11.7 7.4 61 4.0 N 13 20 7 11 1022.8 1014.8 0.0
12/09:00am 14.1 11.6 9.7 75 2.5 N 13 17 7 9 1022.8 1014.8 0.0
12/08:30am 13.3 11.5 9.4 77 2.2 NNE 9 15 5 8 1022.7 1014.7 0.0
12/08:00am 12.5 9.7 8.6 77 2.1 N 13 17 7 9 1022.5 1014.4 0.0
12/07:30am 11.7 8.9 8.6 81 1.7 NNE 13 15 7 8 1022.1 1014.1 0.0
12/07:00am 11.2 7.9 7.9 80 1.8 NE 15 17 8 9 1021.9 1013.8 0.0
12/06:30am 11.4 7.5 7.1 75 2.3 NNE 17 22 9 12 1021.4 1013.3 0.0
12/06:00am 11.7 7.5 5.8 67 3.0 NE 17 20 9 11 1021.2 1013.1 0.0
12/05:30am 12.0 8.2 5.6 65 3.3 NE 15 22 8 12 1020.9 1012.8 0.0
12/05:00am 11.9 8.2 6.2 68 3.0 NE 15 22 8 12 1020.9 1012.8 0.0
12/04:30am 12.1 8.2 3.6 56 4.2 NNE 13 19 7 10 1020.9 1012.8 0.0
12/04:00am 12.4 9.2 -0.8 40 5.9 NE 6 9 3 5 1021.1 1013.0 0.0
12/03:30am 11.9 6.7 0.4 45 5.3 E 17 24 9 13 1021.1 1013.0 0.0
12/03:00am 12.2 7.1 0.9 46 5.3 E 17 28 9 15 1021.3 1013.2 0.0
12/02:30am 13.1 9.8 2.6 49 5.1 ENE 9 13 5 7 1021.7 1013.6 0.0
12/02:00am 13.1 10.5 4.3 55 4.4 ENE 7 9 4 5 1022.0 1013.9 0.0
12/01:30am 13.1 11.1 6.2 63 3.6 NE 6 7 3 4 1022.3 1014.2 0.0
12/01:00am 13.3 11.0 4.7 56 4.4 NE 6 7 3 4 1022.5 1014.4 0.0
12/12:30am 13.4 12.0 7.2 66 3.3 N 4 6 2 3 1022.6 1014.6 0.0
12/12:00am 12.3 10.7 7.8 74 2.4 ENE 6 7 3 4 1022.6 1014.6 0.0
 
Date/Time
EDT
Temp
°C
App
Temp
°C
Dew
Point
Rel
Hum
%
Delta-T
°C
Wind Press
QNH
hPa
Press
MSL
hPa
Rain
since 9 am
mm
Dir
 
Spd
km/h
Gust
km/h
Spd
kts
Gust
kts
11/11:30pm 10.9 9.9 10.9 100 0.0 ESE 7 9 4 5 1022.8 1014.8 0.0
11/11:00pm 11.6 10.0 11.6 100 0.0 SSE 11 15 6 8 1023.1 1015.0 0.0
11/10:30pm 11.8 10.7 11.8 100 0.0 S 9 11 5 6 1023.0 1014.9 0.0
11/10:00pm 12.2 11.2 12.2 100 0.0 SSE 9 11 5 6 1022.7 1014.7 0.0
11/09:30pm 12.3 11.2 12.1 99 0.1 SSE 9 13 5 7 1022.4 1014.3 0.0
11/09:00pm 13.2 11.9 11.3 88 1.1 SE 9 13 5 7 1021.9 1013.8 0.0
11/08:30pm 13.6 12.4 11.7 88 1.1 SSE 9 13 5 7 1021.7 1013.6 0.0
11/08:00pm 13.8 12.6 12.7 93 0.7 SSE 11 15 6 8 1021.5 1013.5 0.0
11/07:30pm 14.7 12.9 12.0 84 1.6 SE 13 17 7 9 1021.3 1013.2 0.0
11/07:00pm 15.6 12.9 10.4 71 3.0 SE 15 20 8 11 1020.9 1012.8 0.0
11/06:30pm 16.3 14.0 9.0 62 4.1 SE 11 15 6 8 1020.8 1012.7 0.0
11/06:00pm 17.5 15.4 9.7 60 4.5 SE 11 20 6 11 1020.6 1012.5 0.0
11/05:30pm 18.1 14.4 4.7 41 7.0 SE 13 20 7 11 1020.6 1012.5 0.0
11/05:00pm 19.5 18.2 10.0 54 5.5 SSE 7 13 4 7 1020.5 1012.3 0.0
11/04:30pm 19.1 17.0 9.6 54 5.5 ESE 11 17 6 9 1020.7 1012.6 0.0
11/04:00pm 20.9 18.2 5.7 37 8.3 ENE 9 15 5 8 1020.9 1012.8 0.0
11/03:30pm 20.1 16.9 5.0 37 8.1 NE 11 20 6 11 1020.9 1012.8 0.0
11/03:00pm 21.1 16.9 3.8 32 9.1 NE 15 26 8 14 1021.2 1013.1 0.0
11/02:30pm 20.1 16.0 4.6 36 8.2 ENE 15 28 8 15 1021.4 1013.3 0.0
11/02:00pm 20.3 16.7 5.1 37 8.1 NNE 13 20 7 11 1021.5 1013.5 0.0
11/01:30pm 19.0 15.5 3.6 36 8.0 ESE 11 20 6 11 1021.9 1013.8 0.0
11/01:00pm 18.2 13.5 2.9 36 7.8 ESE 17 26 9 14 1022.0 1013.9 0.0
11/12:30pm 19.3 15.0 3.1 34 8.3 ESE 15 26 8 14 1022.1 1014.1 0.0
11/12:00pm 17.4 13.1 3.0 38 7.3 SE 15 26 8 14 1022.4 1014.3 0.0
11/11:30am 18.6 14.1 2.4 34 8.2 E 15 30 8 16 1022.4 1014.3 0.0
11/11:00am 18.4 13.3 3.1 36 7.8 E 19 28 10 15 1022.3 1014.2 0.0
11/10:30am 17.5 12.9 3.8 40 7.1 SSE 17 26 9 14 1022.1 1014.1 0.0
11/10:00am 17.3 11.9 2.5 37 7.4 SSE 20 28 11 15 1022.0 1013.9 0.0
11/09:30am 17.0 13.7 4.7 44 6.4 SSE 11 17 6 9 1022.1 1014.1 0.0
11/09:00am 16.5 13.2 4.5 45 6.2 SSE 11 13 6 7 1022.0 1013.9 0.0
11/08:30am 15.2 12.8 5.4 52 5.1 SSE 7 11 4 6 1021.9 1013.8 0.0
11/08:00am 13.5 10.8 5.7 59 4.1 SSE 9 9 5 5 1021.7 1013.6 0.0
11/07:30am 12.7 9.8 4.4 57 4.2 SSE 9 11 5 6 1021.3 1013.2 0.0
11/07:00am 12.1 8.3 2.0 50 4.8 SSE 11 13 6 7 1021.1 1013.0 0.0
11/06:30am 12.0 7.8 -1.2 40 5.9 SSE 11 13 6 7 1020.7 1012.6 0.0
11/06:00am 12.2 8.3 -1.3 39 6.0 SSE 9 11 5 6 1020.5 1012.3 0.0
11/05:30am 12.2 7.8 -2.4 36 6.3 SSE 11 13 6 7 1020.3 1012.2 0.0
11/05:00am 12.1 7.9 -1.1 40 5.9 SSE 11 13 6 7 1020.1 1012.0 0.0
11/04:30am 12.2 7.6 -4.4 31 6.9 SSE 11 13 6 7 1020.1 1012.0 0.0
11/04:00am 12.1 7.7 -2.5 36 6.3 SSE 11 13 6 7 1020.1 1012.0 0.0
11/03:30am 11.6 8.1 5.5 66 3.1 SSE 13 13 7 7 1020.2 1012.1 0.0
11/03:00am 12.0 8.7 4.7 61 3.7 SE 11 13 6 7 1020.5 1012.3 0.0
11/02:30am 11.9 8.6 4.6 61 3.7 SE 11 13 6 7 1020.7 1012.6 0.0
11/02:00am 11.9 8.2 4.6 61 3.7 SSE 13 15 7 8 1020.9 1012.8 0.0
11/01:30am 11.6 8.6 5.9 68 2.9 SE 11 15 6 8 1021.3 1013.2 0.0
11/01:00am 11.6 9.0 7.9 78 2.0 SE 11 13 6 7 1021.4 1013.3 0.0
11/12:30am 11.5 8.9 9.2 86 1.3 SE 13 15 7 8 1021.7 1013.6 0.0
11/12:00am 11.6 9.8 10.8 95 0.5 SE 11 15 6 8 1021.8 1013.7 0.0
 
Date/Time
EDT
Temp
°C
App
Temp
°C
Dew
Point
Rel
Hum
%
Delta-T
°C
Wind Press
QNH
hPa
Press
MSL
hPa
Rain
since 9 am
mm
Dir
 
Spd
km/h
Gust
km/h
Spd
kts
Gust
kts
10/11:30pm 11.9 9.8 11.1 95 0.5 SSE 13 17 7 9 1021.9 1013.8 0.0
10/11:00pm 12.3 10.9 12.3 100 0.0 SSE 11 17 6 9 1022.0 1013.9 0.0
10/10:30pm 13.0 12.2 13.0 100 0.0 SE 9 15 5 8 1022.1 1014.1 0.0
10/10:00pm 13.4 12.4 13.4 100 0.0 SE 11 15 6 8 1022.0 1013.9 0.0
10/09:30pm 13.6 13.0 13.6 100 0.0 SE 9 13 5 7 1021.9 1013.8 0.0
10/09:00pm 13.8 13.7 13.3 97 0.3 SE 6 7 3 4 1021.7 1013.6 0.0
10/08:30pm 14.4 13.8 13.4 94 0.6 SE 9 13 5 7 1021.5 1013.5 0.0
10/08:00pm 15.8 15.6 11.8 77 2.4 E 4 7 2 4 1021.3 1013.2 0.0
10/07:30pm 16.8 14.1 7.4 54 5.2 NNE 11 17 6 9 1020.9 1012.8 0.0
10/07:00pm 17.5 14.9 7.8 53 5.4 NNE 11 17 6 9 1020.8 1012.7 0.0
10/06:30pm 16.9 14.0 8.1 56 4.9 NNE 13 19 7 10 1020.6 1012.5 0.0
10/06:00pm 18.0 14.9 8.8 55 5.2 NNE 15 22 8 12 1020.5 1012.3 0.0
10/05:30pm 18.2 14.5 7.9 51 5.8 N 17 22 9 12 1020.3 1012.2 0.0
10/05:00pm 18.3 14.5 9.1 55 5.2 N 19 28 10 15 1020.2 1012.1 0.0
10/04:30pm 18.3 14.3 8.3 52 5.6 N 19 26 10 14 1020.3 1012.2 0.0
10/04:00pm 18.7 15.3 9.2 54 5.4 N 17 28 9 15 1020.6 1012.5 0.0
10/03:30pm 18.8 14.9 8.7 52 5.7 NNE 19 30 10 16 1020.6 1012.5 0.0
10/03:00pm 19.8 17.1 9.1 50 6.1 NE 13 24 7 13 1020.9 1012.8 0.0
10/02:30pm 19.6 16.7 10.9 57 5.2 NNE 17 26 9 14 1021.2 1013.1 0.0
10/02:00pm 18.7 14.7 8.9 53 5.6 NE 20 32 11 17 1021.3 1013.2 0.0
10/01:30pm 17.9 14.3 9.8 59 4.7 NE 19 32 10 17 1021.3 1013.2 0.0
10/01:00pm 17.3 14.8 10.9 66 3.7 ENE 15 24 8 13 1021.4 1013.3 0.0
10/12:30pm 17.7 15.6 11.3 66 3.8 NE 13 22 7 12 1021.7 1013.6 0.0
10/12:00pm 17.1 14.0 10.2 64 4.0 NNE 17 28 9 15 1021.9 1013.8 0.0
10/11:30am 16.8 13.7 10.4 66 3.7 NNE 17 28 9 15 1021.9 1013.8 0.0
10/11:00am 16.1 12.5 10.0 67 3.5 NNE 19 28 10 15 1021.9 1013.8 0.0
10/10:30am 15.4 12.0 10.4 72 2.9 NNE 19 28 10 15 1021.9 1013.8 0.0
10/10:00am 14.4 9.5 10.0 75 2.5 NNE 26 37 14 20 1021.7 1013.6 0.0
10/09:30am 13.8 7.6 9.3 74 2.5 NNE 32 41 17 22 1021.5 1013.5 0.0
10/09:00am 13.7 8.1 8.7 72 2.8 NNE 28 37 15 20 1021.4 1013.3 0.0
10/08:30am 13.3 8.5 8.8 74 2.5 NNE 24 32 13 17 1021.7 1013.6 0.0
10/08:00am 13.0 8.8 8.3 73 2.6 NNE 20 28 11 15 1021.5 1013.5 0.0
10/07:30am 12.6 8.4 8.1 74 2.4 NNE 20 28 11 15 1021.5 1013.5 0.0
10/07:00am 12.4 8.3 7.7 73 2.5 NNE 19 26 10 14 1021.4 1013.3 0.0
10/06:30am 12.5 8.7 7.6 72 2.6 NNE 17 24 9 13 1021.5 1013.5 0.0
10/06:00am 13.2 8.1 7.6 69 3.0 NNE 24 33 13 18 1021.3 1013.2 0.0
10/05:30am 13.5 8.0 7.5 67 3.2 NNE 26 35 14 19 1021.2 1013.1 0.0
10/05:00am 13.8 8.0 7.8 67 3.3 NNE 28 37 15 20 1021.2 1013.1 0.0
10/04:30am 14.1 8.3 7.9 66 3.4 NNE 28 35 15 19 1021.2 1013.1 0.0
10/04:00am 14.3 8.5 7.8 65 3.5 NNE 28 35 15 19 1021.3 1013.2 0.0
10/03:30am 14.6 8.8 8.1 65 3.6 NNE 28 37 15 20 1021.4 1013.3 0.0
10/03:00am 14.6 9.2 7.9 64 3.7 NNE 26 33 14 18 1021.8 1013.7 0.0
10/02:30am 14.6 9.5 7.6 63 3.8 NNE 24 28 13 15 1022.0 1013.9 0.0
10/02:00am 14.8 9.3 7.4 61 4.0 NNE 26 35 14 19 1022.4 1014.3 0.0
10/01:30am 15.1 9.5 7.2 59 4.3 NNE 26 32 14 17 1022.8 1014.8 0.0
10/01:00am 15.1 10.6 6.9 58 4.4 NNE 20 28 11 15 1023.2 1015.2 0.0
10/12:30am 15.0 10.7 7.1 59 4.3 NNE 19 24 10 13 1023.6 1015.5 0.0
10/12:00am 15.0 11.4 6.6 57 4.5 NNE 15 20 8 11 1023.9 1015.9 0.0
 
Date/Time
EDT
Temp
°C
App
Temp
°C
Dew
Point
Rel
Hum
%
Delta-T
°C
Wind Press
QNH
hPa
Press
MSL
hPa
Rain
since 9 am
mm
Dir
 
Spd
km/h
Gust
km/h
Spd
kts
Gust
kts
09/11:30pm 14.9 11.2 6.2 56 4.6 NE 15 19 8 10 1024.3 1016.3 0.0
09/11:00pm 14.8 11.0 5.6 54 4.8 NE 15 20 8 11 1024.7 1016.8 0.0
09/10:30pm 14.8 12.5 7.4 61 4.0 NNE 9 11 5 6 1024.9 1016.9 0.0
09/10:00pm 14.6 12.6 8.8 68 3.2 NNE 9 13 5 7 1025.1 1017.1 0.0
09/09:30pm 14.7 12.8 9.1 69 3.1 NNE 9 13 5 7 1024.9 1016.9 0.0
09/09:00pm 14.9 12.7 9.5 70 3.0 NNE 11 15 6 8 1024.9 1016.9 0.0
09/08:30pm 15.0 12.5 9.8 71 3.0 NNE 13 17 7 9 1024.9 1016.9 0.0
09/08:00pm 15.6 13.1 9.7 68 3.3 NNE 13 17 7 9 1024.9 1016.9 0.0
09/07:30pm 16.3 13.9 10.2 67 3.5 NNE 13 19 7 10 1024.7 1016.8 0.0
09/07:00pm 17.4 14.8 9.3 59 4.6 NNE 13 17 7 9 1024.7 1016.8 0.0
09/06:30pm 18.6 16.0 9.4 55 5.3 NE 13 19 7 10 1024.7 1016.8 0.0
09/06:00pm 19.1 16.8 10.4 57 5.1 NNE 13 24 7 13 1024.7 1016.8 0.0
09/05:30pm 19.2 16.8 9.9 55 5.4 NNE 13 22 7 12 1025.0 1017.0 0.0
09/05:00pm 20.0 18.1 10.4 54 5.6 NE 11 19 6 10 1025.2 1017.3 0.0

Other Formats:

Comma delimited format used in spreadsheet applications
http://www.bom.gov.au/fwo/IDV60801/IDV60801.94903.axf

JavaScript Object Notation format (JSON) in row-major order
http://www.bom.gov.au/fwo/IDV60801/IDV60801.94903.json